sensor_id;sensor_type;location;lat;lon;timestamp;P1;durP1;ratioP1;P2;durP2;ratioP2
26536;SDS011;14204;51.262;5.488;2023-04-24T00:00:53;11.77;;;8.23;;
26536;SDS011;14204;51.262;5.488;2023-04-24T00:03:22;15.55;;;9.65;;
26536;SDS011;14204;51.262;5.488;2023-04-24T00:05:48;12.90;;;8.90;;
26536;SDS011;14204;51.262;5.488;2023-04-24T00:08:15;13.48;;;8.48;;
26536;SDS011;14204;51.262;5.488;2023-04-24T00:10:41;14.95;;;8.63;;
26536;SDS011;14204;51.262;5.488;2023-04-24T00:13:06;14.05;;;10.13;;
26536;SDS011;14204;51.262;5.488;2023-04-24T00:15:32;16.27;;;9.70;;
26536;SDS011;14204;51.262;5.488;2023-04-24T00:17:59;20.15;;;10.43;;
26536;SDS011;14204;51.262;5.488;2023-04-24T00:20:26;18.13;;;11.13;;
26536;SDS011;14204;51.262;5.488;2023-04-24T00:22:54;19.15;;;10.48;;
26536;SDS011;14204;51.262;5.488;2023-04-24T00:25:20;20.42;;;12.13;;
26536;SDS011;14204;51.262;5.488;2023-04-24T00:27:46;15.98;;;11.00;;
26536;SDS011;14204;51.262;5.488;2023-04-24T00:30:12;17.67;;;13.07;;
26536;SDS011;14204;51.262;5.488;2023-04-24T00:32:39;18.50;;;11.90;;
26536;SDS011;14204;51.262;5.488;2023-04-24T00:35:05;20.27;;;12.88;;
26536;SDS011;14204;51.262;5.488;2023-04-24T00:37:31;19.20;;;12.07;;
26536;SDS011;14204;51.262;5.488;2023-04-24T00:39:57;17.08;;;12.30;;
26536;SDS011;14204;51.262;5.488;2023-04-24T00:42:23;19.95;;;11.70;;
26536;SDS011;14204;51.262;5.488;2023-04-24T00:44:49;17.00;;;11.88;;
26536;SDS011;14204;51.262;5.488;2023-04-24T00:47:15;24.20;;;13.07;;
26536;SDS011;14204;51.262;5.488;2023-04-24T00:49:42;21.77;;;12.70;;
26536;SDS011;14204;51.262;5.488;2023-04-24T00:52:07;17.95;;;13.10;;
26536;SDS011;14204;51.262;5.488;2023-04-24T00:54:34;19.77;;;12.10;;
26536;SDS011;14204;51.262;5.488;2023-04-24T00:57:01;21.67;;;13.27;;
26536;SDS011;14204;51.262;5.488;2023-04-24T00:59:28;23.27;;;13.60;;
26536;SDS011;14204;51.262;5.488;2023-04-24T01:01:54;20.30;;;13.20;;
26536;SDS011;14204;51.262;5.488;2023-04-24T01:04:21;23.60;;;13.77;;
26536;SDS011;14204;51.262;5.488;2023-04-24T01:06:46;22.38;;;14.48;;
26536;SDS011;14204;51.262;5.488;2023-04-24T01:09:15;20.77;;;13.75;;
26536;SDS011;14204;51.262;5.488;2023-04-24T01:11:43;24.73;;;14.15;;
26536;SDS011;14204;51.262;5.488;2023-04-24T01:14:09;22.77;;;15.50;;
26536;SDS011;14204;51.262;5.488;2023-04-24T01:16:35;22.13;;;15.27;;
26536;SDS011;14204;51.262;5.488;2023-04-24T01:19:03;23.02;;;14.43;;
26536;SDS011;14204;51.262;5.488;2023-04-24T01:21:30;24.70;;;15.45;;
26536;SDS011;14204;51.262;5.488;2023-04-24T01:24:02;27.05;;;16.55;;
26536;SDS011;14204;51.262;5.488;2023-04-24T01:26:28;29.73;;;17.88;;
26536;SDS011;14204;51.262;5.488;2023-04-24T01:28:54;28.55;;;15.70;;
26536;SDS011;14204;51.262;5.488;2023-04-24T01:31:20;26.58;;;17.23;;
26536;SDS011;14204;51.262;5.488;2023-04-24T01:33:46;23.88;;;15.93;;
26536;SDS011;14204;51.262;5.488;2023-04-24T01:36:12;28.10;;;16.60;;
26536;SDS011;14204;51.262;5.488;2023-04-24T01:38:39;32.55;;;19.83;;
26536;SDS011;14204;51.262;5.488;2023-04-24T01:41:05;25.60;;;17.05;;
26536;SDS011;14204;51.262;5.488;2023-04-24T01:43:30;38.03;;;18.27;;
26536;SDS011;14204;51.262;5.488;2023-04-24T01:45:57;27.73;;;18.02;;
26536;SDS011;14204;51.262;5.488;2023-04-24T01:48:23;35.90;;;18.40;;
26536;SDS011;14204;51.262;5.488;2023-04-24T01:50:49;26.38;;;17.70;;
26536;SDS011;14204;51.262;5.488;2023-04-24T01:53:14;29.73;;;17.85;;
26536;SDS011;14204;51.262;5.488;2023-04-24T01:55:40;24.50;;;18.95;;
26536;SDS011;14204;51.262;5.488;2023-04-24T01:58:06;30.95;;;18.42;;
26536;SDS011;14204;51.262;5.488;2023-04-24T02:00:32;25.98;;;17.30;;
26536;SDS011;14204;51.262;5.488;2023-04-24T02:02:58;23.80;;;16.70;;
26536;SDS011;14204;51.262;5.488;2023-04-24T02:05:23;30.33;;;17.02;;
26536;SDS011;14204;51.262;5.488;2023-04-24T02:07:49;27.67;;;18.42;;
26536;SDS011;14204;51.262;5.488;2023-04-24T02:10:15;29.73;;;17.42;;
26536;SDS011;14204;51.262;5.488;2023-04-24T02:12:40;29.00;;;17.17;;
26536;SDS011;14204;51.262;5.488;2023-04-24T02:15:06;28.73;;;17.13;;
26536;SDS011;14204;51.262;5.488;2023-04-24T02:17:32;25.92;;;17.70;;
26536;SDS011;14204;51.262;5.488;2023-04-24T02:19:58;26.45;;;16.92;;
26536;SDS011;14204;51.262;5.488;2023-04-24T02:22:24;26.92;;;17.80;;
26536;SDS011;14204;51.262;5.488;2023-04-24T02:24:50;26.80;;;17.63;;
26536;SDS011;14204;51.262;5.488;2023-04-24T02:27:15;28.58;;;16.45;;
26536;SDS011;14204;51.262;5.488;2023-04-24T02:29:41;25.88;;;16.50;;
26536;SDS011;14204;51.262;5.488;2023-04-24T02:32:07;25.63;;;16.05;;
26536;SDS011;14204;51.262;5.488;2023-04-24T02:34:36;25.10;;;16.85;;
26536;SDS011;14204;51.262;5.488;2023-04-24T02:37:02;25.65;;;17.52;;
26536;SDS011;14204;51.262;5.488;2023-04-24T02:39:27;26.52;;;17.55;;
26536;SDS011;14204;51.262;5.488;2023-04-24T02:41:53;24.48;;;16.00;;
26536;SDS011;14204;51.262;5.488;2023-04-24T02:44:19;26.25;;;16.17;;
26536;SDS011;14204;51.262;5.488;2023-04-24T02:46:44;27.23;;;16.08;;
26536;SDS011;14204;51.262;5.488;2023-04-24T02:49:10;23.10;;;15.70;;
26536;SDS011;14204;51.262;5.488;2023-04-24T02:51:37;25.63;;;16.27;;
26536;SDS011;14204;51.262;5.488;2023-04-24T02:54:06;22.98;;;16.55;;
26536;SDS011;14204;51.262;5.488;2023-04-24T02:56:33;24.58;;;14.43;;
26536;SDS011;14204;51.262;5.488;2023-04-24T02:58:58;25.05;;;15.55;;
26536;SDS011;14204;51.262;5.488;2023-04-24T03:01:24;21.30;;;15.88;;
26536;SDS011;14204;51.262;5.488;2023-04-24T03:03:50;25.10;;;14.95;;
26536;SDS011;14204;51.262;5.488;2023-04-24T03:06:16;25.88;;;15.60;;
26536;SDS011;14204;51.262;5.488;2023-04-24T03:08:41;19.40;;;13.88;;
26536;SDS011;14204;51.262;5.488;2023-04-24T03:11:07;21.73;;;14.02;;
26536;SDS011;14204;51.262;5.488;2023-04-24T03:13:33;22.38;;;14.73;;
26536;SDS011;14204;51.262;5.488;2023-04-24T03:15:58;28.05;;;14.70;;
26536;SDS011;14204;51.262;5.488;2023-04-24T03:18:24;20.63;;;13.70;;
26536;SDS011;14204;51.262;5.488;2023-04-24T03:20:50;18.95;;;13.50;;
26536;SDS011;14204;51.262;5.488;2023-04-24T03:23:16;20.48;;;13.30;;
26536;SDS011;14204;51.262;5.488;2023-04-24T03:25:42;18.13;;;12.90;;
26536;SDS011;14204;51.262;5.488;2023-04-24T03:28:08;20.98;;;13.07;;
26536;SDS011;14204;51.262;5.488;2023-04-24T03:30:33;23.75;;;14.13;;
26536;SDS011;14204;51.262;5.488;2023-04-24T03:32:59;18.70;;;12.18;;
26536;SDS011;14204;51.262;5.488;2023-04-24T03:35:25;21.27;;;11.38;;
26536;SDS011;14204;51.262;5.488;2023-04-24T03:37:51;16.23;;;11.23;;
26536;SDS011;14204;51.262;5.488;2023-04-24T03:40:17;17.88;;;12.60;;
26536;SDS011;14204;51.262;5.488;2023-04-24T03:42:42;16.80;;;12.15;;
26536;SDS011;14204;51.262;5.488;2023-04-24T03:45:08;21.27;;;11.93;;
26536;SDS011;14204;51.262;5.488;2023-04-24T03:47:34;13.82;;;11.32;;
26536;SDS011;14204;51.262;5.488;2023-04-24T03:50:00;15.43;;;10.65;;
26536;SDS011;14204;51.262;5.488;2023-04-24T03:52:26;20.15;;;12.90;;
26536;SDS011;14204;51.262;5.488;2023-04-24T03:54:52;15.00;;;11.57;;
26536;SDS011;14204;51.262;5.488;2023-04-24T03:57:18;15.80;;;11.18;;
26536;SDS011;14204;51.262;5.488;2023-04-24T03:59:43;13.55;;;11.68;;
26536;SDS011;14204;51.262;5.488;2023-04-24T04:02:09;17.30;;;10.27;;
26536;SDS011;14204;51.262;5.488;2023-04-24T04:04:35;15.25;;;10.38;;
26536;SDS011;14204;51.262;5.488;2023-04-24T04:07:01;17.17;;;11.27;;
26536;SDS011;14204;51.262;5.488;2023-04-24T04:09:27;16.33;;;10.98;;
26536;SDS011;14204;51.262;5.488;2023-04-24T04:11:53;15.60;;;11.35;;
26536;SDS011;14204;51.262;5.488;2023-04-24T04:14:20;15.77;;;10.75;;
26536;SDS011;14204;51.262;5.488;2023-04-24T04:16:46;16.48;;;12.00;;
26536;SDS011;14204;51.262;5.488;2023-04-24T04:19:12;15.68;;;12.18;;
26536;SDS011;14204;51.262;5.488;2023-04-24T04:21:37;18.42;;;13.55;;
26536;SDS011;14204;51.262;5.488;2023-04-24T04:24:03;17.70;;;13.02;;
26536;SDS011;14204;51.262;5.488;2023-04-24T04:26:30;16.60;;;12.45;;
26536;SDS011;14204;51.262;5.488;2023-04-24T04:28:58;17.52;;;12.73;;
26536;SDS011;14204;51.262;5.488;2023-04-24T04:31:25;18.80;;;13.73;;
26536;SDS011;14204;51.262;5.488;2023-04-24T04:33:51;20.00;;;13.57;;
26536;SDS011;14204;51.262;5.488;2023-04-24T04:36:17;19.45;;;13.90;;
26536;SDS011;14204;51.262;5.488;2023-04-24T04:38:43;17.23;;;12.85;;
26536;SDS011;14204;51.262;5.488;2023-04-24T04:41:09;24.73;;;13.98;;
26536;SDS011;14204;51.262;5.488;2023-04-24T04:43:35;17.05;;;12.40;;
26536;SDS011;14204;51.262;5.488;2023-04-24T04:46:01;16.75;;;12.35;;
26536;SDS011;14204;51.262;5.488;2023-04-24T04:48:28;18.15;;;13.43;;
26536;SDS011;14204;51.262;5.488;2023-04-24T04:50:56;17.42;;;12.52;;
26536;SDS011;14204;51.262;5.488;2023-04-24T04:53:22;18.95;;;12.32;;
26536;SDS011;14204;51.262;5.488;2023-04-24T04:55:48;20.48;;;13.60;;
26536;SDS011;14204;51.262;5.488;2023-04-24T04:58:13;20.10;;;13.32;;
26536;SDS011;14204;51.262;5.488;2023-04-24T05:00:39;19.23;;;13.43;;
26536;SDS011;14204;51.262;5.488;2023-04-24T05:03:06;19.17;;;13.05;;
26536;SDS011;14204;51.262;5.488;2023-04-24T05:05:32;18.40;;;12.52;;
26536;SDS011;14204;51.262;5.488;2023-04-24T05:07:57;14.95;;;12.13;;
26536;SDS011;14204;51.262;5.488;2023-04-24T05:10:23;16.08;;;11.40;;
26536;SDS011;14204;51.262;5.488;2023-04-24T05:12:49;14.40;;;11.02;;
26536;SDS011;14204;51.262;5.488;2023-04-24T05:15:14;12.93;;;10.80;;
26536;SDS011;14204;51.262;5.488;2023-04-24T05:17:40;13.20;;;8.60;;
26536;SDS011;14204;51.262;5.488;2023-04-24T05:20:06;14.73;;;8.65;;
26536;SDS011;14204;51.262;5.488;2023-04-24T05:22:32;14.23;;;8.68;;
26536;SDS011;14204;51.262;5.488;2023-04-24T05:24:58;13.10;;;7.75;;
26536;SDS011;14204;51.262;5.488;2023-04-24T05:27:24;8.82;;;6.97;;
26536;SDS011;14204;51.262;5.488;2023-04-24T05:29:50;6.32;;;5.68;;
26536;SDS011;14204;51.262;5.488;2023-04-24T05:32:16;16.38;;;14.60;;
26536;SDS011;14204;51.262;5.488;2023-04-24T05:34:42;8.98;;;6.50;;
26536;SDS011;14204;51.262;5.488;2023-04-24T05:37:07;7.90;;;5.82;;
26536;SDS011;14204;51.262;5.488;2023-04-24T05:39:35;6.93;;;5.18;;
26536;SDS011;14204;51.262;5.488;2023-04-24T05:42:01;7.78;;;5.13;;
26536;SDS011;14204;51.262;5.488;2023-04-24T05:44:30;7.18;;;4.88;;
26536;SDS011;14204;51.262;5.488;2023-04-24T05:46:56;8.13;;;4.95;;
26536;SDS011;14204;51.262;5.488;2023-04-24T05:49:22;4.53;;;3.70;;
26536;SDS011;14204;51.262;5.488;2023-04-24T05:51:48;4.30;;;3.80;;
26536;SDS011;14204;51.262;5.488;2023-04-24T05:54:13;4.97;;;3.53;;
26536;SDS011;14204;51.262;5.488;2023-04-24T05:56:39;5.20;;;2.83;;
26536;SDS011;14204;51.262;5.488;2023-04-24T05:59:06;5.03;;;2.97;;
26536;SDS011;14204;51.262;5.488;2023-04-24T06:01:32;5.72;;;2.17;;
26536;SDS011;14204;51.262;5.488;2023-04-24T06:03:58;2.75;;;2.00;;
26536;SDS011;14204;51.262;5.488;2023-04-24T06:06:24;4.15;;;2.10;;
26536;SDS011;14204;51.262;5.488;2023-04-24T06:08:50;5.20;;;1.90;;
26536;SDS011;14204;51.262;5.488;2023-04-24T06:11:16;2.63;;;1.85;;
26536;SDS011;14204;51.262;5.488;2023-04-24T06:13:42;3.25;;;1.77;;
26536;SDS011;14204;51.262;5.488;2023-04-24T06:16:08;3.65;;;1.85;;
26536;SDS011;14204;51.262;5.488;2023-04-24T06:18:34;3.63;;;2.53;;
26536;SDS011;14204;51.262;5.488;2023-04-24T06:21:00;5.95;;;2.95;;
26536;SDS011;14204;51.262;5.488;2023-04-24T06:23:25;9.38;;;3.30;;
26536;SDS011;14204;51.262;5.488;2023-04-24T06:25:51;4.38;;;2.83;;
26536;SDS011;14204;51.262;5.488;2023-04-24T06:28:17;3.00;;;2.70;;
26536;SDS011;14204;51.262;5.488;2023-04-24T06:30:42;4.60;;;3.22;;
26536;SDS011;14204;51.262;5.488;2023-04-24T06:33:08;8.32;;;4.30;;
26536;SDS011;14204;51.262;5.488;2023-04-24T06:35:35;7.60;;;4.35;;
26536;SDS011;14204;51.262;5.488;2023-04-24T06:38:01;4.38;;;3.97;;
26536;SDS011;14204;51.262;5.488;2023-04-24T06:40:26;6.53;;;4.40;;
26536;SDS011;14204;51.262;5.488;2023-04-24T06:42:52;7.95;;;5.47;;
26536;SDS011;14204;51.262;5.488;2023-04-24T06:45:18;9.38;;;5.40;;
26536;SDS011;14204;51.262;5.488;2023-04-24T06:47:44;7.38;;;5.05;;
26536;SDS011;14204;51.262;5.488;2023-04-24T06:50:09;6.70;;;5.40;;
26536;SDS011;14204;51.262;5.488;2023-04-24T06:52:36;8.68;;;6.25;;
26536;SDS011;14204;51.262;5.488;2023-04-24T06:55:02;8.63;;;5.82;;
26536;SDS011;14204;51.262;5.488;2023-04-24T06:57:29;7.95;;;6.32;;
26536;SDS011;14204;51.262;5.488;2023-04-24T06:59:54;10.82;;;6.40;;
26536;SDS011;14204;51.262;5.488;2023-04-24T07:02:20;11.85;;;7.40;;
26536;SDS011;14204;51.262;5.488;2023-04-24T07:04:46;13.82;;;8.90;;
26536;SDS011;14204;51.262;5.488;2023-04-24T07:07:12;13.77;;;9.35;;
26536;SDS011;14204;51.262;5.488;2023-04-24T07:09:39;15.90;;;9.25;;
26536;SDS011;14204;51.262;5.488;2023-04-24T07:12:07;13.82;;;9.77;;
26536;SDS011;14204;51.262;5.488;2023-04-24T07:14:35;13.25;;;8.77;;
26536;SDS011;14204;51.262;5.488;2023-04-24T07:17:04;11.18;;;8.68;;
26536;SDS011;14204;51.262;5.488;2023-04-24T07:19:31;12.48;;;9.00;;
26536;SDS011;14204;51.262;5.488;2023-04-24T07:21:58;15.65;;;10.63;;
26536;SDS011;14204;51.262;5.488;2023-04-24T07:24:25;14.40;;;10.93;;
26536;SDS011;14204;51.262;5.488;2023-04-24T07:26:51;19.08;;;10.40;;
26536;SDS011;14204;51.262;5.488;2023-04-24T07:29:17;11.60;;;8.80;;
26536;SDS011;14204;51.262;5.488;2023-04-24T07:31:44;13.90;;;8.75;;
26536;SDS011;14204;51.262;5.488;2023-04-24T07:34:10;20.23;;;9.90;;
26536;SDS011;14204;51.262;5.488;2023-04-24T07:36:36;14.23;;;8.75;;
26536;SDS011;14204;51.262;5.488;2023-04-24T07:39:03;14.48;;;8.38;;
26536;SDS011;14204;51.262;5.488;2023-04-24T07:41:30;14.35;;;7.65;;
26536;SDS011;14204;51.262;5.488;2023-04-24T07:43:55;12.05;;;7.55;;
26536;SDS011;14204;51.262;5.488;2023-04-24T07:46:21;16.30;;;8.85;;
26536;SDS011;14204;51.262;5.488;2023-04-24T07:48:48;13.40;;;8.10;;
26536;SDS011;14204;51.262;5.488;2023-04-24T07:51:14;15.98;;;7.65;;
26536;SDS011;14204;51.262;5.488;2023-04-24T07:53:40;18.48;;;8.48;;
26536;SDS011;14204;51.262;5.488;2023-04-24T07:56:06;19.50;;;9.60;;
26536;SDS011;14204;51.262;5.488;2023-04-24T07:58:32;16.52;;;9.23;;
26536;SDS011;14204;51.262;5.488;2023-04-24T08:00:58;14.75;;;9.23;;
26536;SDS011;14204;51.262;5.488;2023-04-24T08:03:24;17.40;;;9.10;;
26536;SDS011;14204;51.262;5.488;2023-04-24T08:05:50;16.50;;;8.82;;
26536;SDS011;14204;51.262;5.488;2023-04-24T08:08:16;20.02;;;9.50;;
26536;SDS011;14204;51.262;5.488;2023-04-24T08:10:42;20.48;;;8.38;;
26536;SDS011;14204;51.262;5.488;2023-04-24T08:13:08;23.33;;;10.15;;
26536;SDS011;14204;51.262;5.488;2023-04-24T08:15:34;20.65;;;9.73;;
26536;SDS011;14204;51.262;5.488;2023-04-24T08:17:59;24.40;;;10.30;;
26536;SDS011;14204;51.262;5.488;2023-04-24T08:20:25;22.52;;;9.68;;
26536;SDS011;14204;51.262;5.488;2023-04-24T08:22:51;17.63;;;9.20;;
26536;SDS011;14204;51.262;5.488;2023-04-24T08:25:17;23.55;;;10.00;;
26536;SDS011;14204;51.262;5.488;2023-04-24T08:27:44;20.17;;;9.40;;
26536;SDS011;14204;51.262;5.488;2023-04-24T08:30:10;16.70;;;8.20;;
26536;SDS011;14204;51.262;5.488;2023-04-24T08:32:36;22.67;;;9.30;;
26536;SDS011;14204;51.262;5.488;2023-04-24T08:35:02;20.17;;;8.27;;
26536;SDS011;14204;51.262;5.488;2023-04-24T08:37:28;17.35;;;8.20;;
26536;SDS011;14204;51.262;5.488;2023-04-24T08:39:54;19.20;;;8.25;;
26536;SDS011;14204;51.262;5.488;2023-04-24T08:42:20;18.15;;;7.65;;
26536;SDS011;14204;51.262;5.488;2023-04-24T08:44:47;20.42;;;7.97;;
26536;SDS011;14204;51.262;5.488;2023-04-24T08:47:14;17.73;;;8.10;;
26536;SDS011;14204;51.262;5.488;2023-04-24T08:49:40;15.18;;;7.40;;
26536;SDS011;14204;51.262;5.488;2023-04-24T08:52:07;12.45;;;7.03;;
26536;SDS011;14204;51.262;5.488;2023-04-24T08:54:36;20.20;;;7.63;;
26536;SDS011;14204;51.262;5.488;2023-04-24T08:57:03;22.70;;;8.10;;
26536;SDS011;14204;51.262;5.488;2023-04-24T08:59:32;15.55;;;7.15;;
26536;SDS011;14204;51.262;5.488;2023-04-24T09:01:59;17.13;;;7.00;;
26536;SDS011;14204;51.262;5.488;2023-04-24T09:04:25;12.65;;;5.72;;
26536;SDS011;14204;51.262;5.488;2023-04-24T09:06:55;18.42;;;5.68;;
26536;SDS011;14204;51.262;5.488;2023-04-24T09:09:22;18.77;;;6.25;;
26536;SDS011;14204;51.262;5.488;2023-04-24T09:11:49;15.63;;;5.90;;
26536;SDS011;14204;51.262;5.488;2023-04-24T09:14:16;19.25;;;5.78;;
26536;SDS011;14204;51.262;5.488;2023-04-24T09:16:42;15.10;;;5.78;;
26536;SDS011;14204;51.262;5.488;2023-04-24T09:19:08;18.23;;;6.22;;
26536;SDS011;14204;51.262;5.488;2023-04-24T09:21:34;15.77;;;6.55;;
26536;SDS011;14204;51.262;5.488;2023-04-24T09:24:01;20.50;;;6.20;;
26536;SDS011;14204;51.262;5.488;2023-04-24T09:26:29;18.05;;;6.05;;
26536;SDS011;14204;51.262;5.488;2023-04-24T09:28:57;17.48;;;6.85;;
26536;SDS011;14204;51.262;5.488;2023-04-24T09:31:23;13.23;;;6.05;;
26536;SDS011;14204;51.262;5.488;2023-04-24T09:33:55;20.10;;;6.75;;
26536;SDS011;14204;51.262;5.488;2023-04-24T09:36:27;20.90;;;6.90;;
26536;SDS011;14204;51.262;5.488;2023-04-24T09:39:05;18.00;;;5.30;;
26536;SDS011;14204;51.262;5.488;2023-04-24T09:41:45;18.25;;;5.93;;
26536;SDS011;14204;51.262;5.488;2023-04-24T09:44:16;17.75;;;5.80;;
26536;SDS011;14204;51.262;5.488;2023-04-24T09:46:58;16.25;;;5.30;;
26536;SDS011;14204;51.262;5.488;2023-04-24T09:49:28;19.95;;;5.20;;
26536;SDS011;14204;51.262;5.488;2023-04-24T09:52:05;19.88;;;5.13;;
26536;SDS011;14204;51.262;5.488;2023-04-24T09:54:32;23.02;;;4.93;;
26536;SDS011;14204;51.262;5.488;2023-04-24T09:56:58;16.30;;;4.18;;
26536;SDS011;14204;51.262;5.488;2023-04-24T09:59:25;17.52;;;4.72;;
26536;SDS011;14204;51.262;5.488;2023-04-24T10:01:51;13.50;;;4.15;;
26536;SDS011;14204;51.262;5.488;2023-04-24T10:06:46;14.02;;;4.30;;
26536;SDS011;14204;51.262;5.488;2023-04-24T10:09:14;9.23;;;3.75;;
26536;SDS011;14204;51.262;5.488;2023-04-24T10:11:41;15.77;;;4.88;;
26536;SDS011;14204;51.262;5.488;2023-04-24T10:14:15;12.02;;;4.07;;
26536;SDS011;14204;51.262;5.488;2023-04-24T10:16:45;20.02;;;5.13;;
26536;SDS011;14204;51.262;5.488;2023-04-24T10:19:14;27.30;;;5.10;;
26536;SDS011;14204;51.262;5.488;2023-04-24T10:21:43;28.17;;;5.03;;
26536;SDS011;14204;51.262;5.488;2023-04-24T10:24:18;12.82;;;4.43;;
26536;SDS011;14204;51.262;5.488;2023-04-24T10:26:46;14.38;;;3.83;;
26536;SDS011;14204;51.262;5.488;2023-04-24T10:29:14;11.00;;;3.33;;
26536;SDS011;14204;51.262;5.488;2023-04-24T10:31:41;11.93;;;3.45;;
26536;SDS011;14204;51.262;5.488;2023-04-24T10:34:10;10.98;;;3.05;;
26536;SDS011;14204;51.262;5.488;2023-04-24T10:36:38;12.40;;;2.83;;
26536;SDS011;14204;51.262;5.488;2023-04-24T10:39:08;9.63;;;3.28;;
26536;SDS011;14204;51.262;5.488;2023-04-24T10:41:37;9.93;;;2.90;;
26536;SDS011;14204;51.262;5.488;2023-04-24T10:44:04;7.13;;;2.75;;
26536;SDS011;14204;51.262;5.488;2023-04-24T10:46:31;7.57;;;2.38;;
26536;SDS011;14204;51.262;5.488;2023-04-24T10:48:57;3.47;;;1.73;;
26536;SDS011;14204;51.262;5.488;2023-04-24T10:51:23;6.63;;;1.70;;
26536;SDS011;14204;51.262;5.488;2023-04-24T10:54:29;4.80;;;1.58;;
26536;SDS011;14204;51.262;5.488;2023-04-24T10:59:45;6.82;;;1.50;;
26536;SDS011;14204;51.262;5.488;2023-04-24T11:02:15;3.75;;;1.70;;
26536;SDS011;14204;51.262;5.488;2023-04-24T11:04:41;8.00;;;1.92;;
26536;SDS011;14204;51.262;5.488;2023-04-24T11:07:11;3.15;;;1.65;;
26536;SDS011;14204;51.262;5.488;2023-04-24T11:09:37;6.18;;;1.88;;
26536;SDS011;14204;51.262;5.488;2023-04-24T11:12:06;4.43;;;1.70;;
26536;SDS011;14204;51.262;5.488;2023-04-24T11:17:33;5.78;;;1.70;;
26536;SDS011;14204;51.262;5.488;2023-04-24T11:20:06;6.60;;;1.52;;
26536;SDS011;14204;51.262;5.488;2023-04-24T11:22:34;6.85;;;1.60;;
26536;SDS011;14204;51.262;5.488;2023-04-24T11:25:04;4.30;;;1.60;;
26536;SDS011;14204;51.262;5.488;2023-04-24T11:27:34;6.90;;;1.98;;
26536;SDS011;14204;51.262;5.488;2023-04-24T11:30:05;4.63;;;1.75;;
26536;SDS011;14204;51.262;5.488;2023-04-24T11:32:35;4.15;;;1.85;;
26536;SDS011;14204;51.262;5.488;2023-04-24T11:35:02;6.82;;;1.45;;
26536;SDS011;14204;51.262;5.488;2023-04-24T11:40:08;7.28;;;1.98;;
26536;SDS011;14204;51.262;5.488;2023-04-24T11:42:39;4.00;;;1.45;;
26536;SDS011;14204;51.262;5.488;2023-04-24T11:45:16;6.28;;;1.90;;
26536;SDS011;14204;51.262;5.488;2023-04-24T11:47:43;6.50;;;2.03;;
26536;SDS011;14204;51.262;5.488;2023-04-24T11:50:16;7.00;;;2.22;;
26536;SDS011;14204;51.262;5.488;2023-04-24T11:52:43;3.28;;;1.60;;
26536;SDS011;14204;51.262;5.488;2023-04-24T11:57:39;8.88;;;2.03;;
26536;SDS011;14204;51.262;5.488;2023-04-24T12:00:14;8.85;;;1.80;;
26536;SDS011;14204;51.262;5.488;2023-04-24T12:02:41;4.85;;;1.38;;
26536;SDS011;14204;51.262;5.488;2023-04-24T12:05:07;5.28;;;1.58;;
26536;SDS011;14204;51.262;5.488;2023-04-24T12:07:41;6.43;;;1.80;;
26536;SDS011;14204;51.262;5.488;2023-04-24T12:10:10;5.03;;;1.80;;
26536;SDS011;14204;51.262;5.488;2023-04-24T12:12:36;4.18;;;1.80;;
26536;SDS011;14204;51.262;5.488;2023-04-24T12:15:01;6.93;;;1.77;;
26536;SDS011;14204;51.262;5.488;2023-04-24T12:17:33;7.72;;;2.35;;
26536;SDS011;14204;51.262;5.488;2023-04-24T12:20:04;5.28;;;2.00;;
26536;SDS011;14204;51.262;5.488;2023-04-24T12:22:44;9.90;;;2.28;;
26536;SDS011;14204;51.262;5.488;2023-04-24T12:25:13;19.98;;;5.03;;
26536;SDS011;14204;51.262;5.488;2023-04-24T12:27:40;6.28;;;2.17;;
26536;SDS011;14204;51.262;5.488;2023-04-24T12:30:10;7.70;;;2.50;;
26536;SDS011;14204;51.262;5.488;2023-04-24T12:32:41;6.57;;;1.70;;
26536;SDS011;14204;51.262;5.488;2023-04-24T12:35:08;6.43;;;1.50;;
26536;SDS011;14204;51.262;5.488;2023-04-24T12:37:34;8.25;;;1.63;;
26536;SDS011;14204;51.262;5.488;2023-04-24T12:40:05;8.23;;;2.08;;
26536;SDS011;14204;51.262;5.488;2023-04-24T12:42:33;2.60;;;1.53;;
26536;SDS011;14204;51.262;5.488;2023-04-24T12:45:01;4.78;;;1.77;;
26536;SDS011;14204;51.262;5.488;2023-04-24T12:47:31;4.40;;;1.50;;
26536;SDS011;14204;51.262;5.488;2023-04-24T12:49:58;4.93;;;1.35;;
26536;SDS011;14204;51.262;5.488;2023-04-24T12:52:25;9.35;;;2.03;;
26536;SDS011;14204;51.262;5.488;2023-04-24T12:54:58;4.45;;;1.73;;
26536;SDS011;14204;51.262;5.488;2023-04-24T12:57:25;8.00;;;2.33;;
26536;SDS011;14204;51.262;5.488;2023-04-24T12:59:54;6.38;;;1.98;;
26536;SDS011;14204;51.262;5.488;2023-04-24T13:02:21;4.85;;;1.80;;
26536;SDS011;14204;51.262;5.488;2023-04-24T13:04:48;4.70;;;2.30;;
26536;SDS011;14204;51.262;5.488;2023-04-24T13:07:14;10.20;;;1.88;;
26536;SDS011;14204;51.262;5.488;2023-04-24T13:09:41;4.30;;;1.85;;
26536;SDS011;14204;51.262;5.488;2023-04-24T13:12:07;3.13;;;1.50;;
26536;SDS011;14204;51.262;5.488;2023-04-24T13:14:34;5.38;;;2.05;;
26536;SDS011;14204;51.262;5.488;2023-04-24T13:17:00;2.58;;;1.48;;
26536;SDS011;14204;51.262;5.488;2023-04-24T13:19:26;2.92;;;1.50;;
26536;SDS011;14204;51.262;5.488;2023-04-24T13:21:53;7.63;;;1.40;;
26536;SDS011;14204;51.262;5.488;2023-04-24T13:24:20;4.13;;;1.40;;
26536;SDS011;14204;51.262;5.488;2023-04-24T13:26:49;7.45;;;1.83;;
26536;SDS011;14204;51.262;5.488;2023-04-24T13:29:18;5.38;;;1.85;;
26536;SDS011;14204;51.262;5.488;2023-04-24T13:31:45;3.28;;;1.70;;
26536;SDS011;14204;51.262;5.488;2023-04-24T13:34:12;5.13;;;1.58;;
26536;SDS011;14204;51.262;5.488;2023-04-24T13:36:38;4.53;;;1.52;;
26536;SDS011;14204;51.262;5.488;2023-04-24T13:39:04;5.05;;;1.60;;
26536;SDS011;14204;51.262;5.488;2023-04-24T13:41:30;6.75;;;1.50;;
26536;SDS011;14204;51.262;5.488;2023-04-24T13:43:57;3.30;;;1.20;;
26536;SDS011;14204;51.262;5.488;2023-04-24T13:46:23;4.07;;;1.08;;
26536;SDS011;14204;51.262;5.488;2023-04-24T13:48:49;7.15;;;1.17;;
26536;SDS011;14204;51.262;5.488;2023-04-24T13:51:15;2.58;;;1.35;;
26536;SDS011;14204;51.262;5.488;2023-04-24T13:53:41;6.40;;;1.25;;
26536;SDS011;14204;51.262;5.488;2023-04-24T13:56:06;2.80;;;1.02;;
26536;SDS011;14204;51.262;5.488;2023-04-24T13:58:33;3.75;;;1.42;;
26536;SDS011;14204;51.262;5.488;2023-04-24T14:00:59;3.47;;;1.42;;
26536;SDS011;14204;51.262;5.488;2023-04-24T14:03:24;3.85;;;1.60;;
26536;SDS011;14204;51.262;5.488;2023-04-24T14:05:50;5.57;;;1.70;;
26536;SDS011;14204;51.262;5.488;2023-04-24T14:08:16;4.55;;;1.90;;
26536;SDS011;14204;51.262;5.488;2023-04-24T14:10:42;5.15;;;2.50;;
26536;SDS011;14204;51.262;5.488;2023-04-24T14:13:08;5.97;;;2.70;;
26536;SDS011;14204;51.262;5.488;2023-04-24T14:15:35;6.95;;;2.72;;
26536;SDS011;14204;51.262;5.488;2023-04-24T14:18:01;5.85;;;2.53;;
26536;SDS011;14204;51.262;5.488;2023-04-24T14:20:28;4.85;;;1.95;;
26536;SDS011;14204;51.262;5.488;2023-04-24T14:22:53;3.25;;;1.95;;
26536;SDS011;14204;51.262;5.488;2023-04-24T14:25:19;4.05;;;2.00;;
26536;SDS011;14204;51.262;5.488;2023-04-24T14:27:45;4.05;;;2.00;;
26536;SDS011;14204;51.262;5.488;2023-04-24T14:30:12;4.60;;;1.70;;
26536;SDS011;14204;51.262;5.488;2023-04-24T14:32:38;6.88;;;2.17;;
26536;SDS011;14204;51.262;5.488;2023-04-24T14:35:05;3.97;;;1.73;;
26536;SDS011;14204;51.262;5.488;2023-04-24T14:37:32;4.57;;;1.73;;
26536;SDS011;14204;51.262;5.488;2023-04-24T14:39:57;3.35;;;1.75;;
26536;SDS011;14204;51.262;5.488;2023-04-24T14:42:23;4.97;;;1.70;;
26536;SDS011;14204;51.262;5.488;2023-04-24T14:44:49;5.65;;;1.80;;
26536;SDS011;14204;51.262;5.488;2023-04-24T14:47:16;6.10;;;2.03;;